createdAt,value
2022-08-26T00:00:01.098Z,955.41
2022-08-26T00:01:05.122Z,955.38
2022-08-26T00:02:07.337Z,955.37
2022-08-26T00:03:11.080Z,955.39
2022-08-26T00:04:13.160Z,955.4
2022-08-26T00:05:15.121Z,955.37
2022-08-26T00:06:17.132Z,955.4
2022-08-26T00:07:19.095Z,955.39
2022-08-26T00:08:23.083Z,955.36
2022-08-26T00:09:25.150Z,955.34
2022-08-26T00:10:29.096Z,955.35
2022-08-26T00:11:33.285Z,955.36
2022-08-26T00:12:37.547Z,955.35
2022-08-26T00:13:42.100Z,955.36
2022-08-26T00:14:45.106Z,955.37
2022-08-26T00:15:49.099Z,955.36
2022-08-26T00:16:53.358Z,955.36
2022-08-26T00:17:55.143Z,955.35
2022-08-26T00:18:57.112Z,955.36
2022-08-26T00:20:01.115Z,955.36
2022-08-26T00:21:06.174Z,955.34
2022-08-26T00:22:07.153Z,955.35
2022-08-26T00:23:11.107Z,955.32
2022-08-26T00:24:13.109Z,955.32
2022-08-26T00:25:17.128Z,955.32
2022-08-26T00:26:19.102Z,955.3
2022-08-26T00:27:24.041Z,955.3
2022-08-26T00:28:25.112Z,955.28
2022-08-26T00:29:29.111Z,955.28
2022-08-26T00:30:33.122Z,955.31
2022-08-26T00:31:37.299Z,955.31
2022-08-26T00:32:42.117Z,955.3
2022-08-26T00:33:46.112Z,955.29
2022-08-26T00:34:50.116Z,955.29
2022-08-26T00:35:54.118Z,955.3
2022-08-26T00:36:58.124Z,955.29
2022-08-26T00:38:00.116Z,955.3
2022-08-26T00:39:02.116Z,955.28
2022-08-26T00:40:06.205Z,955.28
2022-08-26T00:41:10.122Z,955.26
2022-08-26T00:42:14.146Z,955.26
2022-08-26T00:43:18.125Z,955.28
2022-08-26T00:44:20.134Z,955.27
2022-08-26T00:45:24.149Z,955.29
2022-08-26T00:46:28.186Z,955.28
2022-08-26T00:47:31.100Z,955.25
2022-08-26T00:48:34.120Z,955.26
2022-08-26T00:49:38.125Z,955.25
2022-08-26T00:50:42.136Z,955.26
2022-08-26T00:51:45.154Z,955.23
2022-08-26T00:52:49.132Z,955.22
2022-08-26T00:53:53.137Z,955.22
2022-08-26T00:54:55.129Z,955.26
2022-08-26T00:55:59.127Z,955.25
2022-08-26T00:57:03.170Z,955.24
2022-08-26T00:58:07.139Z,955.24
2022-08-26T00:59:11.143Z,955.22
2022-08-26T01:00:15.136Z,955.23
2022-08-26T01:01:19.194Z,955.22
2022-08-26T01:02:23.271Z,955.23
2022-08-26T01:03:27.140Z,955.22
2022-08-26T01:04:31.137Z,955.23
2022-08-26T01:05:35.146Z,955.18
2022-08-26T01:06:39.140Z,955.17
2022-08-26T01:07:43.170Z,955.2
2022-08-26T01:08:47.138Z,955.19
2022-08-26T01:09:51.146Z,955.23
2022-08-26T01:10:55.868Z,955.21
2022-08-26T01:11:57.146Z,955.21
2022-08-26T01:12:59.154Z,955.2
2022-08-26T01:14:03.137Z,955.23
2022-08-26T01:15:07.148Z,955.2
2022-08-26T01:16:11.216Z,955.21
2022-08-26T01:17:15.144Z,955.26
2022-08-26T01:18:19.160Z,955.26
2022-08-26T01:19:23.187Z,955.26
2022-08-26T01:20:27.156Z,955.24
2022-08-26T01:21:31.191Z,955.24
2022-08-26T01:22:35.152Z,955.21
2022-08-26T01:23:37.154Z,955.25
2022-08-26T01:24:42.183Z,955.26
2022-08-26T01:25:45.156Z,955.28
2022-08-26T01:26:47.191Z,955.29
2022-08-26T01:27:51.156Z,955.28
2022-08-26T01:28:53.152Z,955.28
2022-08-26T01:29:55.160Z,955.27
2022-08-26T01:30:59.163Z,955.29
2022-08-26T01:32:03.203Z,955.27
2022-08-26T01:33:07.310Z,955.26
2022-08-26T01:34:11.158Z,955.25
2022-08-26T01:35:13.171Z,955.24
2022-08-26T01:36:15.171Z,955.24
2022-08-26T01:37:17.244Z,955.23
2022-08-26T01:38:21.165Z,955.22
2022-08-26T01:39:25.215Z,955.2
2022-08-26T01:40:29.270Z,955.22
2022-08-26T01:41:33.464Z,955.25
2022-08-26T01:42:35.172Z,955.24
2022-08-26T01:43:38.312Z,955.25
2022-08-26T01:44:42.231Z,955.24
2022-08-26T01:45:45.231Z,955.23
2022-08-26T01:46:49.216Z,955.19
2022-08-26T01:47:56.641Z,955.2
2022-08-26T01:48:57.177Z,955.2
2022-08-26T01:50:02.839Z,955.21
2022-08-26T01:51:05.183Z,955.22
2022-08-26T01:52:07.225Z,955.18
2022-08-26T01:53:11.489Z,955.18
2022-08-26T01:54:15.180Z,955.16
2022-08-26T01:55:32.324Z,955.14
2022-08-26T01:56:21.359Z,955.15
2022-08-26T01:57:25.191Z,955.16
2022-08-26T01:58:29.183Z,955.12
2022-08-26T01:59:31.184Z,955.13
2022-08-26T02:00:35.340Z,955.13
2022-08-26T02:01:37.188Z,955.14
2022-08-26T02:02:42.196Z,955.09
2022-08-26T02:03:45.211Z,955.12
2022-08-26T02:04:49.914Z,955.11
2022-08-26T02:05:53.872Z,955.06
2022-08-26T02:06:57.235Z,955.08
2022-08-26T02:07:59.525Z,955.07
2022-08-26T02:09:03.371Z,955.04
2022-08-26T02:10:07.201Z,955.08
2022-08-26T02:11:11.195Z,955.07
2022-08-26T02:12:13.259Z,955.08
2022-08-26T02:13:17.197Z,955.09
2022-08-26T02:14:21.532Z,955.1
2022-08-26T02:15:23.847Z,955.1
2022-08-26T02:16:25.307Z,955.1
2022-08-26T02:17:27.208Z,955.1
2022-08-26T02:18:31.212Z,955.09
2022-08-26T02:19:35.256Z,955.11
2022-08-26T02:20:39.212Z,955.09
2022-08-26T02:21:43.210Z,955.1
2022-08-26T02:22:47.208Z,955.1
2022-08-26T02:23:49.207Z,955.09
2022-08-26T02:24:53.251Z,955.09
2022-08-26T02:25:57.202Z,955.06
2022-08-26T02:27:01.210Z,955.07
2022-08-26T02:28:05.259Z,955.07
2022-08-26T02:29:07.582Z,955.05
2022-08-26T02:30:11.567Z,955.06
2022-08-26T02:31:13.251Z,955.05
2022-08-26T02:32:18.557Z,955.05
2022-08-26T02:33:19.215Z,955.05
2022-08-26T02:34:23.224Z,955.02
2022-08-26T02:35:27.267Z,955.03
2022-08-26T02:36:29.210Z,955.01
2022-08-26T02:37:34.028Z,955.03
2022-08-26T02:38:37.310Z,955.03
2022-08-26T02:39:42.360Z,955.04
2022-08-26T02:40:46.285Z,955.05
2022-08-26T02:41:50.235Z,955.05
2022-08-26T02:42:55.848Z,955.05
2022-08-26T02:43:58.258Z,955.05
2022-08-26T02:45:02.248Z,955.07
2022-08-26T02:46:06.229Z,955.06
2022-08-26T02:47:10.344Z,955.05
2022-08-26T02:48:14.238Z,955.05
2022-08-26T02:49:16.264Z,955.03
2022-08-26T02:50:18.250Z,955.03
2022-08-26T02:51:22.230Z,955
2022-08-26T02:52:26.266Z,955
2022-08-26T02:53:28.231Z,955.03
2022-08-26T02:54:30.248Z,955
2022-08-26T02:55:34.244Z,954.98
2022-08-26T02:56:38.588Z,954.96
2022-08-26T02:57:40.268Z,954.95
2022-08-26T02:58:42.244Z,954.9
2022-08-26T02:59:45.283Z,954.89
2022-08-26T03:00:53.140Z,954.9
2022-08-26T03:01:51.607Z,954.87
2022-08-26T03:02:55.271Z,954.85
2022-08-26T03:03:59.247Z,954.87
2022-08-26T03:05:03.272Z,954.86
2022-08-26T03:06:05.252Z,954.84
2022-08-26T03:07:07.257Z,954.89
2022-08-26T03:08:09.246Z,954.88
2022-08-26T03:09:15.983Z,954.91
2022-08-26T03:10:17.584Z,954.9
2022-08-26T03:11:21.259Z,954.9
2022-08-26T03:12:25.742Z,954.87
2022-08-26T03:13:29.247Z,954.88
2022-08-26T03:14:33.250Z,954.9
2022-08-26T03:15:37.563Z,954.9
2022-08-26T03:16:42.262Z,954.87
2022-08-26T03:17:46.256Z,954.87
2022-08-26T03:18:52.194Z,954.86
2022-08-26T03:19:57.024Z,954.86
2022-08-26T03:20:56.248Z,954.86
2022-08-26T03:22:00.652Z,954.86
2022-08-26T03:23:04.328Z,954.82
2022-08-26T03:24:06.318Z,954.81
2022-08-26T03:25:10.279Z,954.81
2022-08-26T03:26:14.263Z,954.81
2022-08-26T03:27:16.325Z,954.8
2022-08-26T03:28:18.269Z,954.81
2022-08-26T03:29:20.263Z,954.82
2022-08-26T03:30:22.270Z,954.82
2022-08-26T03:31:24.662Z,954.78
2022-08-26T03:32:27.042Z,954.78
2022-08-26T03:33:28.265Z,954.79
2022-08-26T03:34:30.305Z,954.8
2022-08-26T03:35:34.269Z,954.78
2022-08-26T03:36:38.270Z,954.82
2022-08-26T03:37:42.330Z,954.79
2022-08-26T03:38:45.280Z,954.83
2022-08-26T03:39:49.460Z,954.83
2022-08-26T03:40:51.403Z,954.84
2022-08-26T03:41:53.277Z,954.84
2022-08-26T03:44:01.689Z,954.83
2022-08-26T03:45:03.378Z,954.83
2022-08-26T03:46:07.431Z,954.83
2022-08-26T03:47:10.356Z,954.82
2022-08-26T03:48:14.354Z,954.81
2022-08-26T03:49:18.356Z,954.77
2022-08-26T03:50:22.729Z,954.78
2022-08-26T03:51:24.355Z,954.78
2022-08-26T03:52:28.400Z,954.74
2022-08-26T03:53:32.364Z,954.73
2022-08-26T03:54:36.364Z,954.72
2022-08-26T03:55:40.407Z,954.74
2022-08-26T03:56:44.357Z,954.74
2022-08-26T03:57:46.364Z,954.72
2022-08-26T03:58:48.364Z,954.72
2022-08-26T03:59:50.361Z,954.74
2022-08-26T04:00:55.771Z,954.73
2022-08-26T04:02:03.130Z,954.74
2022-08-26T04:03:06.042Z,954.77
2022-08-26T04:04:04.921Z,954.76
2022-08-26T04:05:08.380Z,954.77
2022-08-26T04:06:10.369Z,954.77
2022-08-26T04:07:14.369Z,954.81
2022-08-26T04:08:16.377Z,954.79
2022-08-26T04:09:20.418Z,954.79
2022-08-26T04:10:28.912Z,954.78
2022-08-26T04:11:28.381Z,954.77
2022-08-26T04:12:30.369Z,954.8
2022-08-26T04:13:34.377Z,954.79
2022-08-26T04:14:38.405Z,954.8
2022-08-26T04:15:42.435Z,954.79
2022-08-26T04:16:46.376Z,954.82
2022-08-26T04:17:50.377Z,954.84
2022-08-26T04:18:54.378Z,954.83
2022-08-26T04:19:56.418Z,954.85
2022-08-26T04:21:01.909Z,954.83
2022-08-26T04:22:04.389Z,954.83
2022-08-26T04:23:08.487Z,954.85
2022-08-26T04:24:12.080Z,954.86
2022-08-26T04:25:14.409Z,954.86
2022-08-26T04:26:16.386Z,954.86
2022-08-26T04:27:20.417Z,954.86
2022-08-26T04:28:24.386Z,954.89
2022-08-26T04:29:38.485Z,954.89
2022-08-26T04:30:32.387Z,954.87
2022-08-26T04:31:36.426Z,954.86
2022-08-26T04:32:40.388Z,954.85
2022-08-26T04:33:44.390Z,954.86
2022-08-26T04:34:48.394Z,954.84
2022-08-26T04:35:52.435Z,954.86
2022-08-26T04:36:56.435Z,954.88
2022-08-26T04:38:10.507Z,954.89
2022-08-26T04:39:04.395Z,954.89
2022-08-26T04:40:07.448Z,954.89
2022-08-26T04:41:22.495Z,954.89
2022-08-26T04:42:19.897Z,954.89
2022-08-26T04:43:20.403Z,954.87
2022-08-26T04:44:24.406Z,954.85
2022-08-26T04:45:28.404Z,954.84
2022-08-26T04:46:32.505Z,954.87
2022-08-26T04:47:36.443Z,954.87
2022-08-26T04:48:40.409Z,954.87
2022-08-26T04:49:44.408Z,954.87
2022-08-26T04:50:49.589Z,954.86
2022-08-26T04:51:52.447Z,954.87
2022-08-26T04:52:56.417Z,954.85
2022-08-26T04:54:00.412Z,954.86
2022-08-26T04:55:04.420Z,954.86
2022-08-26T04:56:07.440Z,954.84
2022-08-26T04:57:12.452Z,954.86
2022-08-26T04:58:16.416Z,954.87
2022-08-26T04:59:20.451Z,954.86
2022-08-26T05:00:22.411Z,954.89
2022-08-26T05:01:26.457Z,954.9
2022-08-26T05:02:30.411Z,954.89
2022-08-26T05:03:34.412Z,954.91
2022-08-26T05:04:38.457Z,954.91
2022-08-26T05:05:42.430Z,954.9
2022-08-26T05:06:44.420Z,954.89
2022-08-26T05:07:48.422Z,954.91
2022-08-26T05:08:52.424Z,954.91
2022-08-26T05:09:54.452Z,954.89
2022-08-26T05:10:58.441Z,954.85
2022-08-26T05:12:02.428Z,954.88
2022-08-26T05:13:04.495Z,954.88
2022-08-26T05:14:07.451Z,954.88
2022-08-26T05:15:12.472Z,954.87
2022-08-26T05:16:16.504Z,954.85
2022-08-26T05:17:20.434Z,954.87
2022-08-26T05:18:24.451Z,954.85
2022-08-26T05:19:28.472Z,954.85
2022-08-26T05:20:32.437Z,954.85
2022-08-26T05:21:36.429Z,954.82
2022-08-26T05:22:40.447Z,954.83
2022-08-26T05:23:44.437Z,954.85
2022-08-26T05:24:46.473Z,954.84
2022-08-26T05:25:50.436Z,954.83
2022-08-26T05:26:54.461Z,954.88
2022-08-26T05:27:58.434Z,954.86
2022-08-26T05:29:02.440Z,954.88
2022-08-26T05:30:07.514Z,954.88
2022-08-26T05:31:10.480Z,954.88
2022-08-26T05:32:14.477Z,954.86
2022-08-26T05:33:18.451Z,954.87
2022-08-26T05:34:22.435Z,954.86
2022-08-26T05:35:26.483Z,954.86
2022-08-26T05:36:30.495Z,954.85
2022-08-26T05:37:34.437Z,954.86
2022-08-26T05:38:38.446Z,954.85
2022-08-26T05:39:43.557Z,954.85
2022-08-26T05:40:46.447Z,954.83
2022-08-26T05:41:50.473Z,954.83
2022-08-26T05:42:54.485Z,954.8
2022-08-26T05:43:58.433Z,954.82
2022-08-26T05:45:02.442Z,954.84
2022-08-26T05:46:07.544Z,954.83
2022-08-26T05:47:10.471Z,954.83
2022-08-26T05:48:14.453Z,954.83
2022-08-26T05:49:18.467Z,954.81
2022-08-26T05:50:22.442Z,954.83
2022-08-26T05:51:26.440Z,954.78
2022-08-26T05:52:28.476Z,954.82
2022-08-26T05:53:32.454Z,954.79
2022-08-26T05:54:36.460Z,954.77
2022-08-26T05:55:40.456Z,954.77
2022-08-26T05:56:42.437Z,954.76
2022-08-26T05:57:44.455Z,954.74
2022-08-26T05:58:48.455Z,954.77
2022-08-26T05:59:52.480Z,954.73
2022-08-26T06:00:56.446Z,954.73
2022-08-26T06:02:00.510Z,954.75
2022-08-26T06:03:04.670Z,954.72
2022-08-26T06:04:08.465Z,954.72
2022-08-26T06:05:12.456Z,954.75
2022-08-26T06:06:16.473Z,954.75
2022-08-26T06:07:20.478Z,954.75
2022-08-26T06:08:24.477Z,954.75
2022-08-26T06:09:28.464Z,954.74
2022-08-26T06:10:33.055Z,954.75
2022-08-26T06:11:36.468Z,954.72
2022-08-26T06:12:40.495Z,954.74
2022-08-26T06:13:44.467Z,954.71
2022-08-26T06:14:49.066Z,954.72
2022-08-26T06:15:52.542Z,954.69
2022-08-26T06:16:56.466Z,954.7
2022-08-26T06:18:00.510Z,954.7
2022-08-26T06:19:10.360Z,954.71
2022-08-26T06:20:08.494Z,954.72
2022-08-26T06:21:12.498Z,954.72
2022-08-26T06:22:14.470Z,954.72
2022-08-26T06:23:18.483Z,954.7
2022-08-26T06:24:26.972Z,954.71
2022-08-26T06:25:26.489Z,954.68
2022-08-26T06:26:30.527Z,954.71
2022-08-26T06:27:34.480Z,954.74
2022-08-26T06:28:38.483Z,954.73
2022-08-26T06:29:42.482Z,954.71
2022-08-26T06:30:46.520Z,954.71
2022-08-26T06:31:50.503Z,954.74
2022-08-26T06:32:54.526Z,954.75
2022-08-26T06:33:58.507Z,954.74
2022-08-26T06:35:02.510Z,954.73
2022-08-26T06:36:07.503Z,954.74
2022-08-26T06:37:10.538Z,954.75
2022-08-26T06:38:14.501Z,954.74
2022-08-26T06:39:18.509Z,954.75
2022-08-26T06:40:22.570Z,954.73
2022-08-26T06:41:26.497Z,954.72
2022-08-26T06:42:30.499Z,954.74
2022-08-26T06:43:34.501Z,954.71
2022-08-26T06:44:38.503Z,954.69
2022-08-26T06:45:42.505Z,954.68
2022-08-26T06:46:50.210Z,954.68
2022-08-26T06:47:50.498Z,954.67
2022-08-26T06:48:54.500Z,954.66
2022-08-26T06:49:58.508Z,954.69
2022-08-26T06:51:02.502Z,954.72
2022-08-26T06:52:07.521Z,954.73
2022-08-26T06:53:10.510Z,954.73
2022-08-26T06:54:14.510Z,954.71
2022-08-26T06:55:18.508Z,954.69
2022-08-26T06:56:22.504Z,954.71
2022-08-26T06:57:24.533Z,954.72
2022-08-26T06:58:27.505Z,954.68
2022-08-26T06:59:31.515Z,954.71
2022-08-26T07:00:35.515Z,954.69
2022-08-26T07:01:43.067Z,954.72
2022-08-26T07:02:46.912Z,954.73
2022-08-26T07:03:47.515Z,954.67
2022-08-26T07:04:51.517Z,954.71
2022-08-26T07:05:55.515Z,954.71
2022-08-26T07:06:59.559Z,954.69
2022-08-26T07:08:03.523Z,954.7
2022-08-26T07:09:07.654Z,954.69
2022-08-26T07:10:10.521Z,954.69
2022-08-26T07:11:14.527Z,954.7
2022-08-26T07:12:16.569Z,954.7
2022-08-26T07:13:30.491Z,954.72
2022-08-26T07:14:24.524Z,954.71
2022-08-26T07:15:31.475Z,954.71
2022-08-26T07:16:33.533Z,954.69
2022-08-26T07:17:35.555Z,954.7
2022-08-26T07:18:39.529Z,954.68
2022-08-26T07:19:43.527Z,954.69
2022-08-26T07:20:47.529Z,954.66
2022-08-26T07:21:51.524Z,954.64
2022-08-26T07:22:55.578Z,954.66
2022-08-26T07:24:01.387Z,954.67
2022-08-26T07:25:03.573Z,954.67
2022-08-26T07:26:07.549Z,954.65
2022-08-26T07:27:10.551Z,954.67
2022-08-26T07:28:12.538Z,954.67
2022-08-26T07:29:17.559Z,954.67
2022-08-26T07:30:21.703Z,954.68
2022-08-26T07:31:25.613Z,954.69
2022-08-26T07:32:29.549Z,954.64
2022-08-26T07:33:33.576Z,954.65
2022-08-26T07:34:37.555Z,954.64
2022-08-26T07:35:41.543Z,954.65
2022-08-26T07:36:45.551Z,954.65
2022-08-26T07:37:51.881Z,954.62
2022-08-26T07:38:53.572Z,954.66
2022-08-26T07:39:57.572Z,954.65
2022-08-26T07:41:01.583Z,954.64
2022-08-26T07:42:07.777Z,954.64
2022-08-26T07:43:07.732Z,954.65
2022-08-26T07:44:10.557Z,954.64
2022-08-26T07:45:12.551Z,954.65
2022-08-26T07:46:16.612Z,954.64
2022-08-26T07:47:25.868Z,954.64
2022-08-26T07:48:24.548Z,954.63
2022-08-26T07:49:28.777Z,954.63
2022-08-26T07:50:49.818Z,954.61
2022-08-26T07:51:36.556Z,954.62
2022-08-26T07:52:40.586Z,954.62
2022-08-26T07:53:44.565Z,954.6
2022-08-26T07:54:48.564Z,954.59
2022-08-26T07:55:52.564Z,954.6
2022-08-26T07:56:56.635Z,954.57
2022-08-26T07:58:00.597Z,954.57
2022-08-26T07:59:13.798Z,954.56
2022-08-26T08:00:07.594Z,954.58
2022-08-26T08:01:12.584Z,954.56
2022-08-26T08:02:16.563Z,954.55
2022-08-26T08:03:20.566Z,954.53
2022-08-26T08:04:26.754Z,954.53
2022-08-26T08:05:33.372Z,954.51
2022-08-26T08:06:32.561Z,954.51
2022-08-26T08:07:44.979Z,954.49
2022-08-26T08:08:40.573Z,954.51
2022-08-26T08:09:44.618Z,954.5
2022-08-26T08:10:48.796Z,954.49
2022-08-26T08:11:51.289Z,954.51
2022-08-26T08:12:54.615Z,954.45
2022-08-26T08:13:56.902Z,954.48
2022-08-26T08:15:00.578Z,954.5
2022-08-26T08:16:04.579Z,954.45
2022-08-26T08:17:07.791Z,954.47
2022-08-26T08:18:15.312Z,954.48
2022-08-26T08:19:16.579Z,954.48
2022-08-26T08:20:20.583Z,954.48
2022-08-26T08:21:24.608Z,954.48
2022-08-26T08:22:28.588Z,954.45
2022-08-26T08:23:32.581Z,954.45
2022-08-26T08:24:36.588Z,954.45
2022-08-26T08:25:40.578Z,954.41
2022-08-26T08:26:44.616Z,954.39
2022-08-26T08:27:48.585Z,954.38
2022-08-26T08:28:52.636Z,954.37
2022-08-26T08:29:56.588Z,954.35
2022-08-26T08:31:00.681Z,954.33
2022-08-26T08:32:04.693Z,954.34
2022-08-26T08:33:08.597Z,954.32
2022-08-26T08:34:12.625Z,954.33
2022-08-26T08:35:16.592Z,954.33
2022-08-26T08:36:20.612Z,954.31
2022-08-26T08:37:24.588Z,954.32
2022-08-26T08:38:28.595Z,954.26
2022-08-26T08:39:32.633Z,954.26
2022-08-26T08:40:36.651Z,954.28
2022-08-26T08:41:40.586Z,954.23
2022-08-26T08:42:44.672Z,954.2
2022-08-26T08:43:48.602Z,954.18
2022-08-26T08:44:52.884Z,954.17
2022-08-26T08:45:56.638Z,954.13
2022-08-26T08:47:00.639Z,954.17
2022-08-26T08:48:04.701Z,954.15
2022-08-26T08:49:08.641Z,954.14
2022-08-26T08:50:12.595Z,954.12
2022-08-26T08:51:16.616Z,954.12
2022-08-26T08:52:20.620Z,954.11
2022-08-26T08:53:24.608Z,954.12
2022-08-26T08:54:28.767Z,954.09
2022-08-26T08:55:32.619Z,954.09
2022-08-26T08:56:36.614Z,954.06
2022-08-26T08:57:40.631Z,954.08
2022-08-26T08:58:44.620Z,954.05
2022-08-26T08:59:48.648Z,954.11
2022-08-26T09:00:52.680Z,954.07
2022-08-26T09:01:56.636Z,954.07
2022-08-26T09:03:00.659Z,954.07
2022-08-26T09:04:04.625Z,954.11
2022-08-26T09:05:08.680Z,954.07
2022-08-26T09:06:12.624Z,954.09
2022-08-26T09:07:16.624Z,954.08
2022-08-26T09:08:20.631Z,954.05
2022-08-26T09:09:24.626Z,954.06
2022-08-26T09:10:28.791Z,954.07
2022-08-26T09:11:32.626Z,954.06
2022-08-26T09:12:36.627Z,954.09
2022-08-26T09:13:40.628Z,954.1
2022-08-26T09:14:44.639Z,954.1
2022-08-26T09:15:48.660Z,954.17
2022-08-26T09:16:52.705Z,954.17
2022-08-26T09:17:56.667Z,954.18
2022-08-26T09:19:00.652Z,954.19
2022-08-26T09:20:04.644Z,954.2
2022-08-26T09:21:08.640Z,954.2
2022-08-26T09:22:12.708Z,954.23
2022-08-26T09:23:16.637Z,954.22
2022-08-26T09:24:20.642Z,954.27
2022-08-26T09:25:24.634Z,954.27
2022-08-26T09:26:29.576Z,954.27
2022-08-26T09:27:32.666Z,954.29
2022-08-26T09:28:36.635Z,954.31
2022-08-26T09:29:40.639Z,954.31
2022-08-26T09:30:44.722Z,954.3
2022-08-26T09:31:48.640Z,954.32
2022-08-26T09:32:55.903Z,954.32
2022-08-26T09:33:56.643Z,954.33
2022-08-26T09:35:00.686Z,954.28
2022-08-26T09:36:04.651Z,954.3
2022-08-26T09:37:08.645Z,954.27
2022-08-26T09:38:13.152Z,954.26
2022-08-26T09:39:16.653Z,954.22
2022-08-26T09:40:20.754Z,954.24
2022-08-26T09:41:24.664Z,954.22
2022-08-26T09:42:28.659Z,954.19
2022-08-26T09:43:32.659Z,954.17
2022-08-26T09:44:36.674Z,954.12
2022-08-26T09:45:40.732Z,954.09
2022-08-26T09:46:44.651Z,954.05
2022-08-26T09:47:48.651Z,954.06
2022-08-26T09:48:53.208Z,954.05
2022-08-26T09:49:56.701Z,954.02
2022-08-26T09:51:00.693Z,954.01
2022-08-26T09:52:04.651Z,953.98
2022-08-26T09:53:09.957Z,953.97
2022-08-26T09:54:12.665Z,953.96
2022-08-26T09:55:14.695Z,953.95
2022-08-26T09:56:18.671Z,953.96
2022-08-26T09:57:23.719Z,953.97
2022-08-26T09:58:27.669Z,953.92
2022-08-26T09:59:31.665Z,953.92
2022-08-26T10:00:38.367Z,953.89
2022-08-26T10:01:39.755Z,953.87
2022-08-26T10:02:47.891Z,953.87
2022-08-26T10:03:47.684Z,953.88
2022-08-26T10:04:51.673Z,953.87
2022-08-26T10:05:55.682Z,953.87
2022-08-26T10:06:59.730Z,953.86
2022-08-26T10:08:01.709Z,953.86
2022-08-26T10:09:08.876Z,953.84
2022-08-26T10:10:07.700Z,953.85
2022-08-26T10:11:10.685Z,953.86
2022-08-26T10:12:14.683Z,953.85
2022-08-26T10:13:19.684Z,953.84
2022-08-26T10:14:23.751Z,953.84
2022-08-26T10:15:27.678Z,953.86
2022-08-26T10:16:31.722Z,953.84
2022-08-26T10:17:35.676Z,953.84
2022-08-26T10:18:39.692Z,953.83
2022-08-26T10:19:56.910Z,953.82
2022-08-26T10:20:47.696Z,953.81
2022-08-26T10:21:52.244Z,953.82
2022-08-26T10:22:55.716Z,953.8
2022-08-26T10:23:59.685Z,953.81
2022-08-26T10:25:03.764Z,953.79
2022-08-26T10:26:07.706Z,953.8
2022-08-26T10:27:10.693Z,953.76
2022-08-26T10:28:14.698Z,953.76
2022-08-26T10:29:18.729Z,953.74
2022-08-26T10:30:22.699Z,953.71
2022-08-26T10:31:27.603Z,953.71
2022-08-26T10:32:30.781Z,953.7
2022-08-26T10:33:34.690Z,953.66
2022-08-26T10:34:38.689Z,953.69
2022-08-26T10:35:42.698Z,953.68
2022-08-26T10:37:10.765Z,953.67
2022-08-26T10:37:50.695Z,953.67
2022-08-26T10:38:54.695Z,953.65
2022-08-26T10:39:59.251Z,953.67
2022-08-26T10:41:02.693Z,953.66
2022-08-26T10:42:07.744Z,953.65
2022-08-26T10:43:11.503Z,953.65
2022-08-26T10:44:14.732Z,953.61
2022-08-26T10:45:18.702Z,953.59
2022-08-26T10:46:22.750Z,953.58
2022-08-26T10:47:26.703Z,953.57
2022-08-26T10:48:35.578Z,953.55
2022-08-26T10:49:34.699Z,953.55
2022-08-26T10:50:38.710Z,953.52
2022-08-26T10:51:42.709Z,953.51
2022-08-26T10:52:46.709Z,953.54
2022-08-26T10:53:51.595Z,953.51
2022-08-26T10:54:54.713Z,953.52
2022-08-26T10:55:58.716Z,953.52
2022-08-26T10:57:02.756Z,953.51
2022-08-26T10:58:09.123Z,953.48
2022-08-26T10:59:12.563Z,953.49
2022-08-26T11:00:14.746Z,953.46
2022-08-26T11:01:22.701Z,953.46
2022-08-26T11:02:25.074Z,953.46
2022-08-26T11:03:26.717Z,953.46
2022-08-26T11:04:30.790Z,953.49
2022-08-26T11:05:34.719Z,953.5
2022-08-26T11:06:38.722Z,953.53
2022-08-26T11:07:42.747Z,953.57
2022-08-26T11:08:46.733Z,953.64
2022-08-26T11:09:50.725Z,953.64
2022-08-26T11:10:54.712Z,953.65
2022-08-26T11:11:58.720Z,953.66
2022-08-26T11:13:02.768Z,953.68
2022-08-26T11:14:07.741Z,953.66
2022-08-26T11:15:10.715Z,953.63
2022-08-26T11:16:14.846Z,953.6
2022-08-26T11:17:18.729Z,953.55
2022-08-26T11:18:22.729Z,953.51
2022-08-26T11:19:39.923Z,953.49
2022-08-26T11:20:30.723Z,953.45
2022-08-26T11:21:34.734Z,953.42
2022-08-26T11:22:47.561Z,953.38
2022-08-26T11:23:42.738Z,953.35
2022-08-26T11:24:46.745Z,953.33
2022-08-26T11:25:50.762Z,953.28
2022-08-26T11:26:56.204Z,953.28
2022-08-26T11:27:58.738Z,953.25
2022-08-26T11:29:03.166Z,953.25
2022-08-26T11:30:07.784Z,953.26
2022-08-26T11:31:10.775Z,953.27
2022-08-26T11:32:14.784Z,953.25
2022-08-26T11:33:18.758Z,953.24
2022-08-26T11:34:22.742Z,953.28
2022-08-26T11:35:26.749Z,953.26
2022-08-26T11:36:30.784Z,953.25
2022-08-26T11:37:34.741Z,953.27
2022-08-26T11:38:38.747Z,953.29
2022-08-26T11:39:46.282Z,953.29
2022-08-26T11:40:46.817Z,953.3
2022-08-26T11:41:52.641Z,953.33
2022-08-26T11:42:54.748Z,953.31
2022-08-26T11:43:58.751Z,953.37
2022-08-26T11:45:05.340Z,953.38
2022-08-26T11:46:07.884Z,953.45
2022-08-26T11:47:11.601Z,953.45
2022-08-26T11:48:14.763Z,953.39
2022-08-26T11:49:18.789Z,953.39
2022-08-26T11:50:22.761Z,953.35
2022-08-26T11:51:26.752Z,953.35
2022-08-26T11:52:30.804Z,953.32
2022-08-26T11:53:34.765Z,953.31
2022-08-26T11:54:38.753Z,953.35
2022-08-26T11:55:42.763Z,953.33
2022-08-26T11:56:46.758Z,953.3
2022-08-26T11:57:50.827Z,953.32
2022-08-26T11:58:54.754Z,953.33
2022-08-26T11:59:58.762Z,953.31
2022-08-26T12:01:03.624Z,953.3
2022-08-26T12:02:07.776Z,953.3
2022-08-26T12:03:11.049Z,953.3
2022-08-26T12:04:14.907Z,953.28
2022-08-26T12:05:18.768Z,953.28
2022-08-26T12:06:20.832Z,953.26
2022-08-26T12:07:24.769Z,953.23
2022-08-26T12:08:28.773Z,953.26
2022-08-26T12:09:32.775Z,953.24
2022-08-26T12:10:37.779Z,953.23
2022-08-26T12:11:41.783Z,953.23
2022-08-26T12:12:45.777Z,953.26
2022-08-26T12:13:49.780Z,953.25
2022-08-26T12:14:53.779Z,953.3
2022-08-26T12:15:57.783Z,953.32
2022-08-26T12:17:01.785Z,953.32
2022-08-26T12:18:05.799Z,953.35
2022-08-26T12:19:07.911Z,953.35
2022-08-26T12:20:10.825Z,953.34
2022-08-26T12:21:14.788Z,953.32
2022-08-26T12:22:18.789Z,953.31
2022-08-26T12:23:22.809Z,953.31
2022-08-26T12:24:24.790Z,953.29
2022-08-26T12:25:30.681Z,953.27
2022-08-26T12:26:33.791Z,953.27
2022-08-26T12:27:37.796Z,953.22
2022-08-26T12:28:41.792Z,953.18
2022-08-26T12:29:48.526Z,953.19
2022-08-26T12:30:49.802Z,953.14
2022-08-26T12:31:53.833Z,953.12
2022-08-26T12:32:58.856Z,953.11
2022-08-26T12:34:01.815Z,953.08
2022-08-26T12:36:07.833Z,953.07
2022-08-26T12:37:10.816Z,953.06
2022-08-26T12:38:12.865Z,953.08
2022-08-26T12:39:17.865Z,953.09
2022-08-26T12:40:21.991Z,953.09
2022-08-26T12:41:25.850Z,953.1
2022-08-26T12:42:29.827Z,953.06
2022-08-26T12:43:33.834Z,953.04
2022-08-26T12:44:37.860Z,953.02
2022-08-26T12:45:41.867Z,953
2022-08-26T12:46:49.754Z,952.98
2022-08-26T12:47:49.856Z,952.97
2022-08-26T12:48:53.834Z,952.89
2022-08-26T12:49:57.868Z,952.93
2022-08-26T12:51:01.878Z,952.93
2022-08-26T12:52:05.833Z,952.92
2022-08-26T12:53:07.840Z,952.91
2022-08-26T12:54:10.836Z,952.92
2022-08-26T12:55:12.838Z,952.9
2022-08-26T12:56:17.940Z,952.9
2022-08-26T12:57:21.845Z,952.91
2022-08-26T12:58:25.841Z,952.87
2022-08-26T12:59:29.835Z,952.84
2022-08-26T13:00:33.849Z,952.86
2022-08-26T13:01:38.077Z,952.84
2022-08-26T13:02:41.843Z,952.85
2022-08-26T13:03:45.851Z,952.85
2022-08-26T13:04:49.844Z,952.83
2022-08-26T13:05:53.846Z,952.84
2022-08-26T13:06:57.889Z,952.83
2022-08-26T13:08:01.841Z,952.84
2022-08-26T13:09:05.890Z,952.86
2022-08-26T13:10:07.852Z,952.86
2022-08-26T13:11:10.851Z,952.88
2022-08-26T13:12:14.903Z,952.87
2022-08-26T13:13:16.851Z,952.87
2022-08-26T13:14:23.876Z,952.87
2022-08-26T13:15:25.852Z,952.93
2022-08-26T13:16:29.931Z,952.91
2022-08-26T13:17:33.891Z,952.87
2022-08-26T13:18:37.862Z,952.89